Toyama Airport, Japan

5:42 AM JST on September 30, 2016 (GMT +0900)
Takaoka Shi | | Change Station

Elev 0 ft 36.72 °N, 137.02 °E | Updated 4 minutes ago

Fog
Fog
57.0 °F
Feels Like 57.0 °F
N
0.6
Wind Variable Wind from NNE
Gusts 1.9 mph

Today
High -- | Low -- °F
--% Chance of Precip.
Yesterday
High -- | Low -- °F
Precip. -- in
Pressure 30.04 in
Visibility 0.5 miles
Clouds Mostly Cloudy 300 ft
Dew Point 57 °F
Humidity 100%
Rainfall 0.00 in
Snow Depth Not available.
5:45 AM 5:36 PM
Waning Crescent, 1% visible
METAR RJNK 292000Z 13002KT 0800 R06/P1800N FG FEW000 BKN003 13/12 Q1017
Pressure 30.04 in
Visibility 0.5 miles
Clouds Mostly Cloudy 300 ft
Dew Point 57 °F
Humidity 100%
Rainfall 0.00 in
Snow Depth Not available.
5:45 AM 5:36 PM
Waning Crescent, 1% visible
METAR RJNK 292000Z 13002KT 0800 R06/P1800N FG FEW000 BKN003 13/12 Q1017

10-Day Weather Forecast

No radar image for this location.
×

Almanac

Astronomy

Sep. 30, 2016 Rise Set
Actual Time
Civil Twilight
Nautical Twilight
Astronomical Twilight
Moon
Length of Visible Light
Length of Day
Tomorrow will be .
, % of the Moon is Illuminated

Today's Extremes

Country Highs Country Lows

Community

WunderPhotos

Upload Photos

1,942,564 photos uploaded!

WunderBlog® & News

Nearby

Air Quality

  Air Quality AQ Index Pollutant
Not available.

Snow Depth

Station Depth Elevation

Earthquake Activity

City Distance Mag. Time & Date
Minimum magnitude displayed is 2.5.

Coastal Water Temperatures

Place Temperature

Stations

Nearby Weather Stations

Station Location Temp. Windchill Dew Point Humidity Wind Precip. Elev Updated Type